AGN143 HKJK-FNLU
Flight info
| Callsign | AGN143 |
|---|---|
| Flight time | 3h 25m |
| Altitude | 40000 |
| Route | PARIN4B PARIN UM306 VNA |
| Aircraft | B762/H-SDE3FGHIM3RWXY/LB1 |
Departure
| Time | 2026-04-26 21:44 |
|---|---|
| Airport | Jomo Kenyatta International Airport (HKJK) |
Arrival
| Time | 2026-04-27 01:10 |
|---|---|
| Airport | Quatro de Fevereiro International Airport (FNLU) |
| Time | Latitude | Longitude | Altitude | Speed | Heading |
|---|---|---|---|---|---|
| 2026-04-26 21:12 | -1.32859 | 36.92548 | 5340 ft | 0 kts | 193° |
| 2026-04-26 21:33 | -1.32855 | 36.92549 | 5340 ft | 2 kts | 193° |
| 2026-04-26 21:33 | -1.32840 | 36.92553 | 5340 ft | 2 kts | 193° |
| 2026-04-26 21:34 | -1.32825 | 36.92556 | 5340 ft | 2 kts | 193° |
| 2026-04-26 21:34 | -1.32810 | 36.92559 | 5340 ft | 2 kts | 193° |
| 2026-04-26 21:34 | -1.32796 | 36.92563 | 5340 ft | 2 kts | 194° |
| 2026-04-26 21:34 | -1.32783 | 36.92570 | 5340 ft | 2 kts | 235° |
| 2026-04-26 21:35 | -1.32778 | 36.92579 | 5340 ft | 2 kts | 258° |
| 2026-04-26 21:35 | -1.32781 | 36.92598 | 5340 ft | 2 kts | 292° |
| 2026-04-26 21:35 | -1.32786 | 36.92612 | 5340 ft | 2 kts | 292° |
| 2026-04-26 21:35 | -1.32789 | 36.92617 | 5340 ft | 0 kts | 294° |
| 2026-04-26 21:37 | -1.32788 | 36.92617 | 5340 ft | 0 kts | 294° |
| 2026-04-26 21:38 | -1.32774 | 36.92582 | 5340 ft | 11 kts | 287° |
| 2026-04-26 21:38 | -1.32763 | 36.92513 | 5340 ft | 17 kts | 272° |
| 2026-04-26 21:38 | -1.32805 | 36.92357 | 5340 ft | 16 kts | 238° |
| 2026-04-26 21:38 | -1.32854 | 36.92282 | 5340 ft | 9 kts | 259° |
| 2026-04-26 21:39 | -1.32835 | 36.92237 | 5340 ft | 6 kts | 312° |
| 2026-04-26 21:39 | -1.32804 | 36.92213 | 5340 ft | 4 kts | 324° |
| 2026-04-26 21:39 | -1.32785 | 36.92192 | 5340 ft | 3 kts | 295° |
| 2026-04-26 21:39 | -1.32785 | 36.92157 | 5340 ft | 6 kts | 246° |
| 2026-04-26 21:40 | -1.32807 | 36.92126 | 5340 ft | 9 kts | 233° |
| 2026-04-26 21:40 | -1.32853 | 36.92066 | 5341 ft | 12 kts | 232° |
| 2026-04-26 21:40 | -1.32933 | 36.91957 | 5341 ft | 16 kts | 234° |
| 2026-04-26 21:40 | -1.33001 | 36.91863 | 5341 ft | 11 kts | 244° |
| 2026-04-26 21:41 | -1.32977 | 36.91805 | 5341 ft | 8 kts | 323° |
| 2026-04-26 21:41 | -1.32913 | 36.91759 | 5341 ft | 14 kts | 325° |
| 2026-04-26 21:41 | -1.32810 | 36.91687 | 5341 ft | 20 kts | 323° |
| 2026-04-26 21:41 | -1.32742 | 36.91660 | 5341 ft | 7 kts | 33° |
| 2026-04-26 21:42 | -1.32716 | 36.91690 | 5341 ft | 5 kts | 53° |
| 2026-04-26 21:42 | -1.32711 | 36.91697 | 5341 ft | 0 kts | 55° |
| 2026-04-26 21:42 | -1.32684 | 36.91734 | 5341 ft | 0 kts | 52° |
| 2026-04-26 21:43 | -1.32667 | 36.91758 | 5341 ft | 21 kts | 55° |
| 2026-04-26 21:43 | -1.32469 | 36.92035 | 5341 ft | 76 kts | 54° |
| 2026-04-26 21:43 | -1.32044 | 36.92615 | 5340 ft | 131 kts | 53° |
| 2026-04-26 21:43 | -1.31392 | 36.93504 | 5385 ft | 179 kts | 54° |
| 2026-04-26 21:44 | -1.30623 | 36.94577 | 5853 ft | 196 kts | 54° |
| 2026-04-26 21:44 | -1.29791 | 36.95700 | 6465 ft | 210 kts | 53° |
| 2026-04-26 21:44 | -1.28883 | 36.96903 | 6910 ft | 225 kts | 53° |
| 2026-04-26 21:44 | -1.27905 | 36.98193 | 7363 ft | 240 kts | 53° |
| 2026-04-26 21:45 | -1.27204 | 36.99083 | 7656 ft | 251 kts | 47° |
| 2026-04-26 21:45 | -1.25114 | 37.00225 | 8279 ft | 273 kts | 9° |
| 2026-04-26 21:45 | -1.23168 | 37.00075 | 8787 ft | 290 kts | 341° |
| 2026-04-26 21:45 | -1.21454 | 36.99007 | 9510 ft | 298 kts | 314° |
| 2026-04-26 21:46 | -1.20268 | 36.97310 | 10275 ft | 303 kts | 300° |
| 2026-04-26 21:46 | -1.19204 | 36.95420 | 10796 ft | 318 kts | 300° |
| 2026-04-26 21:46 | -1.18097 | 36.93463 | 11209 ft | 336 kts | 300° |
| 2026-04-26 21:46 | -1.17310 | 36.92075 | 11494 ft | 347 kts | 300° |
| 2026-04-26 21:47 | -1.15776 | 36.89164 | 12360 ft | 358 kts | 291° |
| 2026-04-26 21:47 | -1.15245 | 36.86740 | 13112 ft | 362 kts | 274° |
| 2026-04-26 21:47 | -1.15423 | 36.84256 | 13799 ft | 367 kts | 257° |
| 2026-04-26 21:47 | -1.16249 | 36.81828 | 14406 ft | 373 kts | 248° |
| 2026-04-26 21:48 | -1.16894 | 36.80234 | 14862 ft | 374 kts | 249° |
| 2026-04-26 21:48 | -1.17912 | 36.77799 | 15411 ft | 381 kts | 246° |
| 2026-04-26 21:48 | -1.18941 | 36.75377 | 16011 ft | 385 kts | 248° |
| 2026-04-26 21:48 | -1.19987 | 36.72905 | 16605 ft | 389 kts | 248° |
| 2026-04-26 21:49 | -1.21394 | 36.69554 | 17346 ft | 396 kts | 248° |
| 2026-04-26 21:49 | -1.22461 | 36.67007 | 17984 ft | 397 kts | 248° |
| 2026-04-26 21:49 | -1.23174 | 36.65308 | 18335 ft | 401 kts | 248° |
| 2026-04-26 21:49 | -1.24614 | 36.61869 | 19031 ft | 408 kts | 248° |
| 2026-04-26 21:50 | -1.25343 | 36.60128 | 19471 ft | 409 kts | 248° |
| 2026-04-26 21:50 | -1.26453 | 36.57477 | 19973 ft | 415 kts | 248° |
| 2026-04-26 21:50 | -1.27566 | 36.54818 | 20560 ft | 418 kts | 248° |
| 2026-04-26 21:50 | -1.28699 | 36.52113 | 21138 ft | 421 kts | 248° |
| 2026-04-26 21:51 | -1.29827 | 36.49414 | 21658 ft | 425 kts | 248° |
| 2026-04-26 21:51 | -1.31350 | 36.45775 | 22340 ft | 430 kts | 248° |
| 2026-04-26 21:51 | -1.32126 | 36.43922 | 22664 ft | 433 kts | 248° |
| 2026-04-26 21:51 | -1.33298 | 36.41120 | 23261 ft | 434 kts | 248° |
| 2026-04-26 21:52 | -1.34468 | 36.38327 | 23754 ft | 438 kts | 248° |
| 2026-04-26 21:52 | -1.35635 | 36.35537 | 24262 ft | 441 kts | 248° |
| 2026-04-26 21:52 | -1.36822 | 36.32700 | 24828 ft | 443 kts | 248° |
| 2026-04-26 21:52 | -1.38019 | 36.29840 | 25267 ft | 447 kts | 248° |
| 2026-04-26 21:53 | -1.39218 | 36.26973 | 25838 ft | 448 kts | 248° |
| 2026-04-26 21:53 | -1.40420 | 36.24099 | 26331 ft | 451 kts | 248° |
| 2026-04-26 21:53 | -1.41640 | 36.21184 | 26810 ft | 454 kts | 248° |
| 2026-04-26 21:53 | -1.43266 | 36.17297 | 27467 ft | 458 kts | 248° |
| 2026-04-26 21:54 | -1.44498 | 36.14352 | 27904 ft | 461 kts | 248° |
| 2026-04-26 21:54 | -1.45739 | 36.11386 | 28430 ft | 462 kts | 248° |
| 2026-04-26 21:54 | -1.46566 | 36.09409 | 28731 ft | 464 kts | 248° |
| 2026-04-26 21:54 | -1.47814 | 36.06427 | 29165 ft | 468 kts | 248° |
| 2026-04-26 21:55 | -1.49071 | 36.03421 | 29587 ft | 471 kts | 248° |
| 2026-04-26 21:55 | -1.50760 | 35.99383 | 30133 ft | 474 kts | 248° |
| 2026-04-26 21:55 | -1.51604 | 35.97364 | 30446 ft | 474 kts | 248° |
| 2026-04-26 21:55 | -1.53301 | 35.93308 | 30999 ft | 476 kts | 248° |
| 2026-04-26 21:56 | -1.54153 | 35.91271 | 31382 ft | 474 kts | 248° |
| 2026-04-26 21:56 | -1.55420 | 35.88240 | 31938 ft | 472 kts | 248° |
| 2026-04-26 21:56 | -1.56680 | 35.85226 | 32458 ft | 471 kts | 248° |
| 2026-04-26 21:56 | -1.57942 | 35.82208 | 33009 ft | 469 kts | 248° |
| 2026-04-26 21:57 | -1.59184 | 35.79235 | 33513 ft | 468 kts | 248° |
| 2026-04-26 21:57 | -1.60448 | 35.76211 | 34011 ft | 468 kts | 248° |
| 2026-04-26 21:57 | -1.61679 | 35.73265 | 34550 ft | 466 kts | 248° |
| 2026-04-26 21:57 | -1.63351 | 35.69266 | 35217 ft | 464 kts | 248° |
| 2026-04-26 21:58 | -1.64586 | 35.66312 | 35662 ft | 463 kts | 248° |
| 2026-04-26 21:58 | -1.65829 | 35.63338 | 36034 ft | 463 kts | 248° |
| 2026-04-26 21:58 | -1.66655 | 35.61359 | 36248 ft | 464 kts | 248° |
| 2026-04-26 21:58 | -1.67899 | 35.58383 | 36659 ft | 462 kts | 248° |
| 2026-04-26 21:59 | -1.69138 | 35.55418 | 37048 ft | 461 kts | 248° |
| 2026-04-26 21:59 | -1.70379 | 35.52447 | 37321 ft | 462 kts | 248° |
| 2026-04-26 21:59 | -1.71614 | 35.49493 | 37683 ft | 460 kts | 248° |
| 2026-04-26 21:59 | -1.73247 | 35.45584 | 38007 ft | 460 kts | 248° |
| 2026-04-26 22:00 | -1.74489 | 35.42612 | 38300 ft | 460 kts | 248° |
| 2026-04-26 22:00 | -1.75710 | 35.39688 | 38567 ft | 459 kts | 248° |
| 2026-04-26 22:00 | -1.76504 | 35.37720 | 38732 ft | 459 kts | 251° |
| 2026-04-26 22:00 | -1.77382 | 35.34659 | 38895 ft | 459 kts | 258° |
| 2026-04-26 22:01 | -1.78374 | 35.30495 | 39272 ft | 457 kts | 258° |
| 2026-04-26 22:01 | -1.78862 | 35.28450 | 39451 ft | 456 kts | 258° |
| 2026-04-26 22:01 | -1.79829 | 35.24366 | 39776 ft | 455 kts | 258° |
| 2026-04-26 22:01 | -1.80550 | 35.21307 | 39942 ft | 455 kts | 258° |
| 2026-04-26 22:02 | -1.81037 | 35.19236 | 40087 ft | 455 kts | 258° |
| 2026-04-26 22:02 | -1.81752 | 35.16193 | 40274 ft | 450 kts | 258° |
| 2026-04-26 22:02 | -1.83169 | 35.10151 | 40287 ft | 448 kts | 258° |
| 2026-04-26 22:03 | -1.84597 | 35.04064 | 40268 ft | 451 kts | 258° |
| 2026-04-26 22:03 | -1.86080 | 34.97984 | 40257 ft | 454 kts | 256° |
| 2026-04-26 22:04 | -1.87819 | 34.91890 | 40245 ft | 455 kts | 256° |
| 2026-04-26 22:04 | -1.89543 | 34.85806 | 40237 ft | 456 kts | 256° |
| 2026-04-26 22:05 | -1.91269 | 34.79705 | 40233 ft | 456 kts | 256° |
| 2026-04-26 22:05 | -1.93273 | 34.72620 | 40223 ft | 455 kts | 256° |
| 2026-04-26 22:06 | -1.94702 | 34.67563 | 40227 ft | 456 kts | 256° |
| 2026-04-26 22:06 | -1.96427 | 34.61460 | 40222 ft | 458 kts | 256° |
| 2026-04-26 22:07 | -1.98160 | 34.55328 | 40211 ft | 458 kts | 256° |
| 2026-04-26 22:07 | -1.99895 | 34.49189 | 40218 ft | 459 kts | 256° |
| 2026-04-26 22:08 | -2.01626 | 34.43066 | 40206 ft | 458 kts | 256° |
| 2026-04-26 22:08 | -2.03657 | 34.35961 | 40193 ft | 459 kts | 256° |
| 2026-04-26 22:09 | -2.05128 | 34.30812 | 40190 ft | 460 kts | 256° |
| 2026-04-26 22:09 | -2.06884 | 34.24664 | 40174 ft | 462 kts | 256° |
| 2026-04-26 22:10 | -2.08649 | 34.18485 | 40171 ft | 461 kts | 256° |
| 2026-04-26 22:10 | -2.10399 | 34.12357 | 40162 ft | 462 kts | 256° |
| 2026-04-26 22:11 | -2.12165 | 34.06170 | 40168 ft | 463 kts | 256° |
| 2026-04-26 22:11 | -2.13931 | 33.99983 | 40161 ft | 462 kts | 256° |
| 2026-04-26 22:12 | -2.15687 | 33.93830 | 40164 ft | 462 kts | 256° |
| 2026-04-26 22:12 | -2.17442 | 33.87682 | 40160 ft | 462 kts | 256° |
| 2026-04-26 22:13 | -2.19201 | 33.81515 | 40149 ft | 462 kts | 256° |
| 2026-04-26 22:13 | -2.20968 | 33.75321 | 40146 ft | 463 kts | 256° |
| 2026-04-26 22:14 | -2.22723 | 33.69167 | 40144 ft | 463 kts | 256° |
| 2026-04-26 22:14 | -2.24788 | 33.61929 | 40138 ft | 463 kts | 256° |
| 2026-04-26 22:15 | -2.26258 | 33.56771 | 40145 ft | 463 kts | 256° |
| 2026-04-26 22:15 | -2.28313 | 33.49563 | 40138 ft | 462 kts | 256° |
| 2026-04-26 22:16 | -2.29781 | 33.44414 | 40140 ft | 463 kts | 256° |
| 2026-04-26 22:16 | -2.31544 | 33.38227 | 40137 ft | 463 kts | 255° |
| 2026-04-26 22:17 | -2.33303 | 33.32052 | 40125 ft | 464 kts | 256° |
| 2026-04-26 22:17 | -2.35073 | 33.25840 | 40132 ft | 463 kts | 255° |
| 2026-04-26 22:18 | -2.36832 | 33.19664 | 40133 ft | 463 kts | 256° |
| 2026-04-26 22:18 | -2.38591 | 33.13487 | 40125 ft | 463 kts | 256° |
| 2026-04-26 22:19 | -2.40365 | 33.07258 | 40130 ft | 463 kts | 256° |
| 2026-04-26 22:19 | -2.42118 | 33.01097 | 40138 ft | 464 kts | 256° |
| 2026-04-26 22:20 | -2.43884 | 32.94890 | 40137 ft | 464 kts | 255° |
| 2026-04-26 22:20 | -2.45364 | 32.88643 | 40140 ft | 462 kts | 259° |
| 2026-04-26 22:21 | -2.46961 | 32.81325 | 40128 ft | 462 kts | 259° |
| 2026-04-26 22:21 | -2.48104 | 32.76107 | 40125 ft | 461 kts | 259° |
| 2026-04-26 22:22 | -2.49889 | 32.69948 | 40138 ft | 462 kts | 250° |
| 2026-04-26 22:22 | -2.52592 | 32.62962 | 40131 ft | 463 kts | 250° |
| 2026-04-26 22:23 | -2.54541 | 32.57954 | 40131 ft | 461 kts | 250° |
| 2026-04-26 22:23 | -2.56857 | 32.52018 | 40135 ft | 462 kts | 250° |
| 2026-04-26 22:24 | -2.59196 | 32.46030 | 40137 ft | 462 kts | 250° |
| 2026-04-26 22:24 | -2.61529 | 32.40059 | 40141 ft | 461 kts | 250° |
| 2026-04-26 22:25 | -2.63860 | 32.34092 | 40143 ft | 462 kts | 250° |
| 2026-04-26 22:25 | -2.65729 | 32.27941 | 40157 ft | 460 kts | 259° |
| 2026-04-26 22:26 | -2.67118 | 32.21677 | 40138 ft | 461 kts | 259° |
| 2026-04-26 22:26 | -2.68482 | 32.15456 | 40133 ft | 459 kts | 259° |
| 2026-04-26 22:27 | -2.69845 | 32.09204 | 40133 ft | 459 kts | 259° |
| 2026-04-26 22:27 | -2.71198 | 32.02991 | 40132 ft | 460 kts | 259° |
| 2026-04-26 22:28 | -2.72550 | 31.96771 | 40133 ft | 460 kts | 259° |
| 2026-04-26 22:28 | -2.73908 | 31.90525 | 40132 ft | 461 kts | 259° |
| 2026-04-26 22:29 | -2.75270 | 31.84258 | 40135 ft | 460 kts | 259° |
| 2026-04-26 22:29 | -2.76626 | 31.78014 | 40140 ft | 459 kts | 259° |
| 2026-04-26 22:30 | -2.77975 | 31.71804 | 40151 ft | 460 kts | 259° |
| 2026-04-26 22:30 | -2.79333 | 31.65548 | 40156 ft | 459 kts | 259° |
| 2026-04-26 22:31 | -2.80692 | 31.59288 | 40173 ft | 461 kts | 259° |
| 2026-04-26 22:31 | -2.82050 | 31.53030 | 40183 ft | 460 kts | 259° |
| 2026-04-26 22:32 | -2.83400 | 31.46807 | 40191 ft | 460 kts | 259° |
| 2026-04-26 22:32 | -2.84756 | 31.40553 | 40198 ft | 460 kts | 259° |
| 2026-04-26 22:33 | -2.86784 | 31.31200 | 40200 ft | 460 kts | 259° |
| 2026-04-26 22:34 | -2.88139 | 31.24951 | 40211 ft | 460 kts | 259° |
| 2026-04-26 22:34 | -2.89496 | 31.18687 | 40211 ft | 460 kts | 260° |
| 2026-04-26 22:35 | -2.90845 | 31.12462 | 40210 ft | 460 kts | 260° |
| 2026-04-26 22:35 | -2.92205 | 31.06181 | 40208 ft | 460 kts | 260° |
| 2026-04-26 22:36 | -2.93552 | 30.99956 | 40208 ft | 460 kts | 259° |
| 2026-04-26 22:36 | -2.95126 | 30.92685 | 40207 ft | 460 kts | 260° |
| 2026-04-26 22:37 | -2.95554 | 30.90710 | 40211 ft | 460 kts | 260° |
| 2026-04-26 22:37 | -2.96312 | 30.87206 | 40210 ft | 460 kts | 260° |
| 2026-04-26 22:38 | -2.97664 | 30.80954 | 40207 ft | 459 kts | 259° |
| 2026-04-26 22:38 | -2.99161 | 30.74732 | 40202 ft | 459 kts | 258° |
| 2026-04-26 22:39 | -3.00715 | 30.68518 | 40211 ft | 460 kts | 257° |
| 2026-04-26 22:39 | -3.02263 | 30.62322 | 40217 ft | 459 kts | 257° |
| 2026-04-26 22:40 | -3.03803 | 30.56153 | 40230 ft | 460 kts | 258° |
| 2026-04-26 22:40 | -3.05351 | 30.49946 | 40231 ft | 460 kts | 257° |
| 2026-04-26 22:41 | -3.06898 | 30.43745 | 40240 ft | 459 kts | 257° |
| 2026-04-26 22:41 | -3.08444 | 30.37542 | 40246 ft | 459 kts | 257° |
| 2026-04-26 22:42 | -3.09996 | 30.31314 | 40245 ft | 460 kts | 257° |
| 2026-04-26 22:42 | -3.11546 | 30.25096 | 40240 ft | 460 kts | 257° |
| 2026-04-26 22:43 | -3.13090 | 30.18895 | 40235 ft | 461 kts | 257° |
| 2026-04-26 22:43 | -3.14639 | 30.12677 | 40231 ft | 460 kts | 257° |
| 2026-04-26 22:44 | -3.16175 | 30.06510 | 40238 ft | 459 kts | 257° |
| 2026-04-26 22:44 | -3.17723 | 30.00290 | 40241 ft | 461 kts | 257° |
| 2026-04-26 22:45 | -3.19268 | 29.94083 | 40245 ft | 460 kts | 257° |
| 2026-04-26 22:45 | -3.20806 | 29.87900 | 40257 ft | 459 kts | 257° |
| 2026-04-26 22:46 | -3.22350 | 29.81693 | 40269 ft | 460 kts | 257° |
| 2026-04-26 22:46 | -3.23884 | 29.75521 | 40281 ft | 459 kts | 257° |
| 2026-04-26 22:47 | -3.25428 | 29.69311 | 40277 ft | 460 kts | 257° |
| 2026-04-26 22:47 | -3.26970 | 29.63108 | 40270 ft | 460 kts | 257° |
| 2026-04-26 22:48 | -3.28510 | 29.56911 | 40271 ft | 459 kts | 257° |
| 2026-04-26 22:48 | -3.30043 | 29.50736 | 40270 ft | 460 kts | 257° |
| 2026-04-26 22:49 | -3.31842 | 29.43491 | 40243 ft | 461 kts | 257° |
| 2026-04-26 22:49 | -3.33131 | 29.38299 | 40217 ft | 460 kts | 257° |
| 2026-04-26 22:50 | -3.34746 | 29.32101 | 40182 ft | 461 kts | 252° |
| 2026-04-26 22:50 | -3.36974 | 29.26140 | 40170 ft | 462 kts | 250° |
| 2026-04-26 22:51 | -3.39252 | 29.20114 | 40193 ft | 460 kts | 250° |
| 2026-04-26 22:51 | -3.41514 | 29.14152 | 40255 ft | 461 kts | 250° |
| 2026-04-26 22:52 | -3.43792 | 29.08158 | 40322 ft | 460 kts | 250° |
| 2026-04-26 22:52 | -3.46066 | 29.02171 | 40421 ft | 460 kts | 250° |
| 2026-04-26 22:53 | -3.48335 | 28.96202 | 40461 ft | 462 kts | 250° |
| 2026-04-26 22:53 | -3.50622 | 28.90207 | 40449 ft | 461 kts | 250° |
| 2026-04-26 22:54 | -3.52914 | 28.84200 | 40411 ft | 460 kts | 250° |
| 2026-04-26 22:54 | -3.55200 | 28.78208 | 40393 ft | 461 kts | 250° |
| 2026-04-26 22:55 | -3.57489 | 28.72207 | 40372 ft | 461 kts | 250° |
| 2026-04-26 22:55 | -3.59767 | 28.66231 | 40336 ft | 461 kts | 250° |
| 2026-04-26 22:56 | -3.62045 | 28.60250 | 40317 ft | 461 kts | 250° |
| 2026-04-26 22:56 | -3.64324 | 28.54260 | 40290 ft | 460 kts | 250° |
| 2026-04-26 22:57 | -3.66599 | 28.48279 | 40278 ft | 461 kts | 250° |
| 2026-04-26 22:57 | -3.68888 | 28.42261 | 40275 ft | 461 kts | 250° |
| 2026-04-26 22:58 | -3.71170 | 28.36259 | 40264 ft | 462 kts | 250° |
| 2026-04-26 22:58 | -3.73461 | 28.30232 | 40252 ft | 462 kts | 250° |
| 2026-04-26 22:59 | -3.75725 | 28.24276 | 40233 ft | 461 kts | 250° |
| 2026-04-26 22:59 | -3.78000 | 28.18287 | 40211 ft | 460 kts | 250° |
| 2026-04-26 23:00 | -3.80278 | 28.12291 | 40193 ft | 461 kts | 250° |
| 2026-04-26 23:00 | -3.82563 | 28.06275 | 40167 ft | 461 kts | 250° |
| 2026-04-26 23:01 | -3.84828 | 28.00310 | 40147 ft | 463 kts | 250° |
| 2026-04-26 23:01 | -3.87113 | 27.94290 | 40131 ft | 462 kts | 250° |
| 2026-04-26 23:02 | -3.89390 | 27.88290 | 40123 ft | 461 kts | 250° |
| 2026-04-26 23:02 | -3.91667 | 27.82288 | 40120 ft | 461 kts | 250° |
| 2026-04-26 23:03 | -3.93937 | 27.76305 | 40123 ft | 461 kts | 250° |
| 2026-04-26 23:03 | -3.96213 | 27.70303 | 40112 ft | 461 kts | 250° |
| 2026-04-26 23:04 | -3.98491 | 27.64296 | 40110 ft | 463 kts | 250° |
| 2026-04-26 23:04 | -4.00765 | 27.58296 | 40089 ft | 462 kts | 250° |
| 2026-04-26 23:05 | -4.03043 | 27.52284 | 40082 ft | 462 kts | 250° |
| 2026-04-26 23:05 | -4.05320 | 27.46273 | 40070 ft | 461 kts | 250° |
| 2026-04-26 23:06 | -4.07592 | 27.40274 | 40074 ft | 462 kts | 250° |
| 2026-04-26 23:06 | -4.09876 | 27.34245 | 40065 ft | 463 kts | 250° |
| 2026-04-26 23:07 | -4.12155 | 27.28223 | 40056 ft | 462 kts | 250° |
| 2026-04-26 23:07 | -4.14406 | 27.22234 | 40044 ft | 463 kts | 250° |
| 2026-04-26 23:08 | -4.16678 | 27.16170 | 40043 ft | 463 kts | 250° |
| 2026-04-26 23:08 | -4.18927 | 27.10167 | 40048 ft | 462 kts | 250° |
| 2026-04-26 23:09 | -4.21195 | 27.04114 | 40060 ft | 463 kts | 250° |
| 2026-04-26 23:09 | -4.23454 | 26.98080 | 40063 ft | 464 kts | 250° |
| 2026-04-26 23:10 | -4.25714 | 26.92045 | 40049 ft | 463 kts | 250° |
| 2026-04-26 23:10 | -4.27967 | 26.86026 | 40031 ft | 464 kts | 250° |
| 2026-04-26 23:11 | -4.30235 | 26.79972 | 40022 ft | 463 kts | 250° |
| 2026-04-26 23:11 | -4.32503 | 26.73960 | 40012 ft | 463 kts | 250° |
| 2026-04-26 23:12 | -4.34783 | 26.67913 | 40007 ft | 463 kts | 250° |
| 2026-04-26 23:12 | -4.37060 | 26.61873 | 40001 ft | 464 kts | 250° |
| 2026-04-26 23:13 | -4.39326 | 26.55858 | 39996 ft | 465 kts | 249° |
| 2026-04-26 23:13 | -4.41614 | 26.49787 | 39988 ft | 465 kts | 249° |
| 2026-04-26 23:14 | -4.43895 | 26.43730 | 39983 ft | 464 kts | 249° |
| 2026-04-26 23:14 | -4.46156 | 26.37725 | 39985 ft | 464 kts | 249° |
| 2026-04-26 23:15 | -4.48438 | 26.31663 | 39981 ft | 465 kts | 249° |
| 2026-04-26 23:15 | -4.50719 | 26.25602 | 39990 ft | 466 kts | 249° |
| 2026-04-26 23:16 | -4.52999 | 26.19542 | 39981 ft | 465 kts | 249° |
| 2026-04-26 23:16 | -4.55269 | 26.13509 | 39989 ft | 464 kts | 249° |
| 2026-04-26 23:17 | -4.57546 | 26.07457 | 39993 ft | 464 kts | 249° |
| 2026-04-26 23:17 | -4.59832 | 26.01378 | 39995 ft | 465 kts | 249° |
| 2026-04-26 23:18 | -4.62113 | 25.95311 | 39997 ft | 466 kts | 249° |
| 2026-04-26 23:18 | -4.64394 | 25.89244 | 39998 ft | 467 kts | 249° |
| 2026-04-26 23:19 | -4.66681 | 25.83159 | 39998 ft | 465 kts | 249° |
| 2026-04-26 23:19 | -4.68954 | 25.77107 | 39998 ft | 465 kts | 249° |
| 2026-04-26 23:20 | -4.71225 | 25.71058 | 40004 ft | 466 kts | 249° |
| 2026-04-26 23:20 | -4.73499 | 25.65003 | 40001 ft | 466 kts | 249° |
| 2026-04-26 23:21 | -4.75784 | 25.58913 | 40000 ft | 467 kts | 249° |
| 2026-04-26 23:21 | -4.78062 | 25.52844 | 40007 ft | 467 kts | 249° |
| 2026-04-26 23:22 | -4.80344 | 25.46760 | 40005 ft | 466 kts | 249° |
| 2026-04-26 23:22 | -4.82621 | 25.40689 | 40004 ft | 466 kts | 249° |
| 2026-04-26 23:23 | -4.84898 | 25.34613 | 40005 ft | 467 kts | 249° |
| 2026-04-26 23:23 | -4.87188 | 25.28502 | 40004 ft | 467 kts | 249° |
| 2026-04-26 23:24 | -4.89464 | 25.22426 | 40004 ft | 467 kts | 249° |
| 2026-04-26 23:24 | -4.91746 | 25.16334 | 40002 ft | 468 kts | 249° |
| 2026-04-26 23:25 | -4.94024 | 25.10251 | 40000 ft | 467 kts | 249° |
| 2026-04-26 23:25 | -4.96309 | 25.04146 | 40002 ft | 467 kts | 249° |
| 2026-04-26 23:26 | -4.98596 | 24.98034 | 40002 ft | 468 kts | 249° |
| 2026-04-26 23:26 | -5.00869 | 24.91958 | 40004 ft | 467 kts | 249° |
| 2026-04-26 23:27 | -5.03152 | 24.85853 | 40006 ft | 467 kts | 249° |
| 2026-04-26 23:27 | -5.05428 | 24.79763 | 40006 ft | 467 kts | 249° |
| 2026-04-26 23:28 | -5.07696 | 24.73694 | 40008 ft | 467 kts | 249° |
| 2026-04-26 23:28 | -5.09982 | 24.67577 | 40008 ft | 467 kts | 249° |
| 2026-04-26 23:29 | -5.12267 | 24.61458 | 40006 ft | 466 kts | 249° |
| 2026-04-26 23:29 | -5.14540 | 24.55368 | 40009 ft | 468 kts | 249° |
| 2026-04-26 23:30 | -5.16820 | 24.49261 | 40007 ft | 467 kts | 249° |
| 2026-04-26 23:30 | -5.19080 | 24.43203 | 40013 ft | 468 kts | 249° |
| 2026-04-26 23:31 | -5.21355 | 24.37105 | 40013 ft | 467 kts | 249° |
| 2026-04-26 23:31 | -5.23641 | 24.30973 | 40014 ft | 467 kts | 249° |
| 2026-04-26 23:32 | -5.25909 | 24.24888 | 40020 ft | 467 kts | 249° |
| 2026-04-26 23:32 | -5.28175 | 24.18805 | 40012 ft | 467 kts | 249° |
| 2026-04-26 23:33 | -5.30435 | 24.12694 | 40002 ft | 466 kts | 249° |
| 2026-04-26 23:33 | -5.32676 | 24.06612 | 39996 ft | 466 kts | 249° |
| 2026-04-26 23:34 | -5.34917 | 24.00528 | 39992 ft | 466 kts | 249° |
| 2026-04-26 23:34 | -5.37160 | 23.94439 | 39997 ft | 466 kts | 249° |
| 2026-04-26 23:35 | -5.39418 | 23.88350 | 40001 ft | 467 kts | 249° |
| 2026-04-26 23:35 | -5.41690 | 23.82218 | 40003 ft | 466 kts | 249° |
| 2026-04-26 23:36 | -5.43944 | 23.76132 | 40006 ft | 466 kts | 249° |
| 2026-04-26 23:36 | -5.46192 | 23.70061 | 40010 ft | 466 kts | 249° |
| 2026-04-26 23:37 | -5.48450 | 23.63960 | 40004 ft | 465 kts | 249° |
| 2026-04-26 23:37 | -5.50701 | 23.57877 | 40000 ft | 466 kts | 249° |
| 2026-04-26 23:38 | -5.52955 | 23.51784 | 39998 ft | 466 kts | 249° |
| 2026-04-26 23:38 | -5.55204 | 23.45674 | 40002 ft | 467 kts | 250° |
| 2026-04-26 23:39 | -5.57362 | 23.39585 | 40000 ft | 466 kts | 250° |
| 2026-04-26 23:39 | -5.59540 | 23.33447 | 39997 ft | 466 kts | 250° |
| 2026-04-26 23:40 | -5.61725 | 23.27288 | 40000 ft | 466 kts | 250° |
| 2026-04-26 23:40 | -5.63882 | 23.21205 | 40002 ft | 465 kts | 250° |
| 2026-04-26 23:41 | -5.66056 | 23.15073 | 40013 ft | 466 kts | 250° |
| 2026-04-26 23:41 | -5.68213 | 23.08986 | 40017 ft | 466 kts | 250° |
| 2026-04-26 23:42 | -5.70389 | 23.02845 | 40032 ft | 466 kts | 250° |
| 2026-04-26 23:42 | -5.73645 | 22.93648 | 40033 ft | 466 kts | 250° |
| 2026-04-26 23:43 | -5.75807 | 22.87539 | 40033 ft | 466 kts | 249° |
| 2026-04-26 23:43 | -5.77979 | 22.81400 | 40032 ft | 465 kts | 250° |
| 2026-04-26 23:44 | -5.80131 | 22.75315 | 40031 ft | 466 kts | 250° |
| 2026-04-26 23:44 | -5.82299 | 22.69180 | 40032 ft | 466 kts | 250° |
| 2026-04-26 23:45 | -5.84462 | 22.63058 | 40027 ft | 466 kts | 249° |
| 2026-04-26 23:45 | -5.86631 | 22.56919 | 40020 ft | 466 kts | 249° |
| 2026-04-26 23:46 | -5.88793 | 22.50796 | 40015 ft | 465 kts | 249° |
| 2026-04-26 23:46 | -5.90901 | 22.44658 | 40019 ft | 465 kts | 251° |
| 2026-04-26 23:47 | -5.92932 | 22.38533 | 40016 ft | 466 kts | 251° |
| 2026-04-26 23:47 | -5.94991 | 22.32329 | 40007 ft | 465 kts | 251° |
| 2026-04-26 23:48 | -5.97025 | 22.26196 | 40009 ft | 466 kts | 251° |
| 2026-04-26 23:48 | -5.99078 | 22.20005 | 40006 ft | 466 kts | 250° |
| 2026-04-26 23:49 | -6.01119 | 22.13849 | 40004 ft | 466 kts | 250° |
| 2026-04-26 23:49 | -6.03170 | 22.07661 | 40006 ft | 465 kts | 250° |
| 2026-04-26 23:50 | -6.05213 | 22.01494 | 40009 ft | 466 kts | 250° |
| 2026-04-26 23:50 | -6.07256 | 21.95325 | 40008 ft | 466 kts | 250° |
| 2026-04-26 23:51 | -6.09300 | 21.89150 | 40005 ft | 466 kts | 251° |
| 2026-04-26 23:51 | -6.11342 | 21.82975 | 40002 ft | 465 kts | 251° |
| 2026-04-26 23:52 | -6.13367 | 21.76850 | 40005 ft | 464 kts | 250° |
| 2026-04-26 23:52 | -6.15397 | 21.70708 | 40007 ft | 465 kts | 250° |
| 2026-04-26 23:53 | -6.17379 | 21.64536 | 40009 ft | 465 kts | 251° |
| 2026-04-26 23:53 | -6.19291 | 21.58317 | 40010 ft | 466 kts | 251° |
| 2026-04-26 23:54 | -6.21209 | 21.52088 | 40006 ft | 465 kts | 251° |
| 2026-04-26 23:54 | -6.23114 | 21.45900 | 40007 ft | 466 kts | 251° |
| 2026-04-26 23:55 | -6.25023 | 21.39693 | 40009 ft | 465 kts | 251° |
| 2026-04-26 23:55 | -6.26938 | 21.33466 | 40000 ft | 465 kts | 251° |
| 2026-04-26 23:56 | -6.28833 | 21.27303 | 40000 ft | 465 kts | 251° |
| 2026-04-26 23:56 | -6.30742 | 21.21088 | 40000 ft | 465 kts | 251° |
| 2026-04-26 23:57 | -6.32648 | 21.14884 | 39999 ft | 466 kts | 251° |
| 2026-04-26 23:57 | -6.34558 | 21.08663 | 40000 ft | 464 kts | 251° |
| 2026-04-26 23:58 | -6.36454 | 21.02483 | 40001 ft | 464 kts | 251° |
| 2026-04-26 23:58 | -6.38355 | 20.96285 | 39998 ft | 465 kts | 251° |
| 2026-04-26 23:59 | -6.40258 | 20.90075 | 39997 ft | 465 kts | 251° |
| 2026-04-26 23:59 | -6.42165 | 20.83853 | 39997 ft | 465 kts | 251° |
| 2026-04-27 00:00 | -6.44104 | 20.77677 | 39994 ft | 465 kts | 250° |
| 2026-04-27 00:00 | -6.46138 | 20.71514 | 39992 ft | 464 kts | 250° |
| 2026-04-27 00:01 | -6.48160 | 20.65372 | 39996 ft | 464 kts | 250° |
| 2026-04-27 00:01 | -6.50178 | 20.59232 | 40002 ft | 465 kts | 250° |
| 2026-04-27 00:02 | -6.52212 | 20.53043 | 40005 ft | 465 kts | 250° |
| 2026-04-27 00:02 | -6.54227 | 20.46910 | 40021 ft | 465 kts | 250° |
| 2026-04-27 00:03 | -6.56254 | 20.40736 | 40026 ft | 464 kts | 250° |
| 2026-04-27 00:03 | -6.58282 | 20.34557 | 40032 ft | 464 kts | 250° |
| 2026-04-27 00:04 | -6.60303 | 20.28397 | 40026 ft | 464 kts | 250° |
| 2026-04-27 00:04 | -6.62322 | 20.22241 | 40027 ft | 464 kts | 250° |
| 2026-04-27 00:05 | -6.64339 | 20.16087 | 40024 ft | 464 kts | 250° |
| 2026-04-27 00:05 | -6.66361 | 20.09915 | 40023 ft | 465 kts | 250° |
| 2026-04-27 00:06 | -6.68377 | 20.03757 | 40022 ft | 465 kts | 250° |
| 2026-04-27 00:06 | -6.70391 | 19.97605 | 40017 ft | 465 kts | 250° |
| 2026-04-27 00:07 | -6.72422 | 19.91398 | 40015 ft | 466 kts | 250° |
| 2026-04-27 00:07 | -6.74445 | 19.85209 | 40015 ft | 466 kts | 250° |
| 2026-04-27 00:08 | -6.76454 | 19.79062 | 40022 ft | 465 kts | 250° |
| 2026-04-27 00:08 | -6.78481 | 19.72850 | 40035 ft | 467 kts | 250° |
| 2026-04-27 00:09 | -6.80495 | 19.66666 | 40042 ft | 468 kts | 250° |
| 2026-04-27 00:09 | -6.82524 | 19.60431 | 40052 ft | 466 kts | 250° |
| 2026-04-27 00:10 | -6.84537 | 19.54243 | 40061 ft | 466 kts | 250° |
| 2026-04-27 00:10 | -6.86548 | 19.48062 | 40062 ft | 466 kts | 250° |
| 2026-04-27 00:11 | -6.88560 | 19.41872 | 40069 ft | 466 kts | 250° |
| 2026-04-27 00:11 | -6.90576 | 19.35665 | 40072 ft | 468 kts | 250° |
| 2026-04-27 00:12 | -6.92964 | 19.28447 | 40075 ft | 467 kts | 250° |
| 2026-04-27 00:12 | -6.94685 | 19.23255 | 40075 ft | 466 kts | 250° |
| 2026-04-27 00:13 | -6.96729 | 19.17086 | 40077 ft | 465 kts | 250° |
| 2026-04-27 00:13 | -6.98770 | 19.10925 | 40078 ft | 466 kts | 250° |
| 2026-04-27 00:14 | -7.00820 | 19.04734 | 40079 ft | 466 kts | 250° |
| 2026-04-27 00:14 | -7.02867 | 18.98547 | 40082 ft | 467 kts | 250° |
| 2026-04-27 00:15 | -7.04920 | 18.92340 | 40082 ft | 467 kts | 250° |
| 2026-04-27 00:15 | -7.06965 | 18.86152 | 40084 ft | 467 kts | 250° |
| 2026-04-27 00:16 | -7.09008 | 18.79969 | 40087 ft | 466 kts | 250° |
| 2026-04-27 00:16 | -7.11052 | 18.73778 | 40090 ft | 467 kts | 250° |
| 2026-04-27 00:17 | -7.13097 | 18.67584 | 40090 ft | 467 kts | 250° |
| 2026-04-27 00:17 | -7.15154 | 18.61352 | 40092 ft | 468 kts | 250° |
| 2026-04-27 00:18 | -7.17192 | 18.55168 | 40098 ft | 469 kts | 250° |
| 2026-04-27 00:18 | -7.19204 | 18.48957 | 40103 ft | 467 kts | 251° |
| 2026-04-27 00:19 | -7.21172 | 18.42708 | 40102 ft | 468 kts | 251° |
| 2026-04-27 00:19 | -7.23145 | 18.36450 | 40102 ft | 469 kts | 251° |
| 2026-04-27 00:20 | -7.25114 | 18.30199 | 40095 ft | 468 kts | 251° |
| 2026-04-27 00:20 | -7.27083 | 18.23947 | 40091 ft | 469 kts | 251° |
| 2026-04-27 00:21 | -7.29053 | 18.17690 | 40085 ft | 469 kts | 251° |
| 2026-04-27 00:21 | -7.31038 | 18.11455 | 40075 ft | 469 kts | 251° |
| 2026-04-27 00:22 | -7.33045 | 18.05236 | 40070 ft | 469 kts | 251° |
| 2026-04-27 00:22 | -7.35066 | 17.98963 | 40067 ft | 470 kts | 251° |
| 2026-04-27 00:23 | -7.37080 | 17.92710 | 40064 ft | 470 kts | 251° |
| 2026-04-27 00:23 | -7.39076 | 17.86511 | 40058 ft | 468 kts | 251° |
| 2026-04-27 00:24 | -7.41094 | 17.80239 | 40047 ft | 468 kts | 251° |
| 2026-04-27 00:24 | -7.43093 | 17.74024 | 40043 ft | 469 kts | 251° |
| 2026-04-27 00:25 | -7.45097 | 17.67788 | 40047 ft | 469 kts | 251° |
| 2026-04-27 00:25 | -7.47103 | 17.61544 | 40045 ft | 469 kts | 251° |
| 2026-04-27 00:26 | -7.49109 | 17.55294 | 40043 ft | 469 kts | 251° |
| 2026-04-27 00:26 | -7.51119 | 17.49033 | 40045 ft | 469 kts | 251° |
| 2026-04-27 00:27 | -7.53112 | 17.42817 | 40041 ft | 468 kts | 251° |
| 2026-04-27 00:27 | -7.55113 | 17.36578 | 40043 ft | 468 kts | 251° |
| 2026-04-27 00:28 | -7.57114 | 17.30331 | 40027 ft | 468 kts | 251° |
| 2026-04-27 00:28 | -7.59115 | 17.24074 | 40022 ft | 469 kts | 251° |
| 2026-04-27 00:29 | -7.61116 | 17.17816 | 40023 ft | 470 kts | 251° |
| 2026-04-27 00:29 | -7.63098 | 17.11614 | 40016 ft | 468 kts | 251° |
| 2026-04-27 00:30 | -7.65096 | 17.05357 | 40023 ft | 468 kts | 251° |
| 2026-04-27 00:30 | -7.67086 | 16.99126 | 40019 ft | 467 kts | 251° |
| 2026-04-27 00:31 | -7.69067 | 16.92915 | 40007 ft | 468 kts | 251° |
| 2026-04-27 00:31 | -7.71065 | 16.86650 | 40019 ft | 469 kts | 251° |
| 2026-04-27 00:32 | -7.73055 | 16.80404 | 40018 ft | 468 kts | 251° |
| 2026-04-27 00:32 | -7.75033 | 16.74197 | 40020 ft | 468 kts | 252° |
| 2026-04-27 00:33 | -7.77019 | 16.67957 | 40037 ft | 467 kts | 252° |
| 2026-04-27 00:33 | -7.78997 | 16.61740 | 40036 ft | 468 kts | 251° |
| 2026-04-27 00:34 | -7.80988 | 16.55479 | 40060 ft | 468 kts | 251° |
| 2026-04-27 00:34 | -7.82966 | 16.49257 | 40068 ft | 468 kts | 252° |
| 2026-04-27 00:35 | -7.84948 | 16.43015 | 40077 ft | 467 kts | 252° |
| 2026-04-27 00:35 | -7.86929 | 16.36774 | 40087 ft | 468 kts | 252° |
| 2026-04-27 00:36 | -7.88920 | 16.30502 | 40104 ft | 468 kts | 252° |
| 2026-04-27 00:36 | -7.90894 | 16.24276 | 40112 ft | 468 kts | 252° |
| 2026-04-27 00:37 | -7.92872 | 16.18034 | 40120 ft | 469 kts | 252° |
| 2026-04-27 00:37 | -7.94850 | 16.11790 | 40118 ft | 468 kts | 252° |
| 2026-04-27 00:38 | -7.96833 | 16.05527 | 40122 ft | 468 kts | 252° |
| 2026-04-27 00:38 | -7.98803 | 15.99300 | 40129 ft | 468 kts | 252° |
| 2026-04-27 00:39 | -8.00745 | 15.93158 | 40122 ft | 468 kts | 252° |
| 2026-04-27 00:39 | -8.02722 | 15.86904 | 40118 ft | 469 kts | 252° |
| 2026-04-27 00:40 | -8.04698 | 15.80647 | 40116 ft | 468 kts | 252° |
| 2026-04-27 00:40 | -8.06674 | 15.74387 | 40100 ft | 468 kts | 252° |
| 2026-04-27 00:41 | -8.08645 | 15.68140 | 40099 ft | 467 kts | 252° |
| 2026-04-27 00:41 | -8.10615 | 15.61891 | 40109 ft | 468 kts | 252° |
| 2026-04-27 00:42 | -8.12595 | 15.55607 | 40119 ft | 468 kts | 252° |
| 2026-04-27 00:42 | -8.13582 | 15.52473 | 39735 ft | 473 kts | 252° |
| 2026-04-27 00:42 | -8.14566 | 15.49350 | 38966 ft | 471 kts | 253° |
| 2026-04-27 00:43 | -8.15548 | 15.46230 | 38279 ft | 462 kts | 252° |
| 2026-04-27 00:43 | -8.16516 | 15.43153 | 37623 ft | 454 kts | 252° |
| 2026-04-27 00:43 | -8.17455 | 15.40168 | 36974 ft | 450 kts | 253° |
| 2026-04-27 00:43 | -8.18404 | 15.37149 | 36317 ft | 455 kts | 253° |
| 2026-04-27 00:44 | -8.19361 | 15.34105 | 35635 ft | 462 kts | 253° |
| 2026-04-27 00:44 | -8.20349 | 15.30963 | 34960 ft | 465 kts | 253° |
| 2026-04-27 00:44 | -8.21324 | 15.27860 | 34351 ft | 466 kts | 252° |
| 2026-04-27 00:44 | -8.22306 | 15.24736 | 33776 ft | 466 kts | 253° |
| 2026-04-27 00:45 | -8.23279 | 15.21637 | 33232 ft | 468 kts | 253° |
| 2026-04-27 00:45 | -8.24270 | 15.18480 | 32683 ft | 471 kts | 253° |
| 2026-04-27 00:45 | -8.25247 | 15.15367 | 32170 ft | 474 kts | 252° |
| 2026-04-27 00:45 | -8.26249 | 15.12173 | 31543 ft | 477 kts | 252° |
| 2026-04-27 00:46 | -8.27246 | 15.08997 | 30926 ft | 477 kts | 252° |
| 2026-04-27 00:46 | -8.28253 | 15.05787 | 30303 ft | 475 kts | 252° |
| 2026-04-27 00:46 | -8.29234 | 15.02657 | 29704 ft | 471 kts | 252° |
| 2026-04-27 00:46 | -8.30209 | 14.99545 | 29121 ft | 465 kts | 252° |
| 2026-04-27 00:47 | -8.31186 | 14.96429 | 28524 ft | 458 kts | 252° |
| 2026-04-27 00:47 | -8.32130 | 14.93416 | 27966 ft | 452 kts | 252° |
| 2026-04-27 00:47 | -8.33074 | 14.90402 | 27407 ft | 447 kts | 252° |
| 2026-04-27 00:47 | -8.34016 | 14.87394 | 26849 ft | 445 kts | 252° |
| 2026-04-27 00:48 | -8.34953 | 14.84400 | 26297 ft | 443 kts | 252° |
| 2026-04-27 00:48 | -8.35873 | 14.81459 | 25755 ft | 441 kts | 252° |
| 2026-04-27 00:48 | -8.36791 | 14.78525 | 25210 ft | 437 kts | 252° |
| 2026-04-27 00:48 | -8.37698 | 14.75624 | 24671 ft | 432 kts | 252° |
| 2026-04-27 00:49 | -8.38603 | 14.72729 | 24129 ft | 428 kts | 253° |
| 2026-04-27 00:49 | -8.39493 | 14.69881 | 23598 ft | 424 kts | 253° |
| 2026-04-27 00:49 | -8.40373 | 14.67064 | 23085 ft | 419 kts | 253° |
| 2026-04-27 00:49 | -8.41250 | 14.64258 | 22565 ft | 416 kts | 253° |
| 2026-04-27 00:50 | -8.42106 | 14.61515 | 22061 ft | 412 kts | 253° |
| 2026-04-27 00:50 | -8.43817 | 14.56034 | 21021 ft | 406 kts | 253° |
| 2026-04-27 00:50 | -8.44652 | 14.53346 | 20527 ft | 402 kts | 253° |
| 2026-04-27 00:51 | -8.45343 | 14.50627 | 20026 ft | 398 kts | 257° |
| 2026-04-27 00:51 | -8.45993 | 14.47917 | 19576 ft | 393 kts | 257° |
| 2026-04-27 00:51 | -8.46645 | 14.45227 | 19126 ft | 391 kts | 256° |
| 2026-04-27 00:51 | -8.47288 | 14.42583 | 18682 ft | 390 kts | 256° |
| 2026-04-27 00:52 | -8.47940 | 14.39903 | 18226 ft | 389 kts | 256° |
| 2026-04-27 00:52 | -8.48586 | 14.37251 | 17767 ft | 386 kts | 256° |
| 2026-04-27 00:52 | -8.49225 | 14.34632 | 17310 ft | 382 kts | 256° |
| 2026-04-27 00:52 | -8.49858 | 14.32033 | 16851 ft | 379 kts | 256° |
| 2026-04-27 00:53 | -8.50482 | 14.29470 | 16398 ft | 376 kts | 256° |
| 2026-04-27 00:53 | -8.51102 | 14.26924 | 15946 ft | 373 kts | 256° |
| 2026-04-27 00:53 | -8.51722 | 14.24381 | 15490 ft | 369 kts | 256° |
| 2026-04-27 00:53 | -8.52323 | 14.21909 | 15041 ft | 365 kts | 256° |
| 2026-04-27 00:54 | -8.52932 | 14.19406 | 14589 ft | 362 kts | 256° |
| 2026-04-27 00:54 | -8.53523 | 14.16976 | 14145 ft | 359 kts | 256° |
| 2026-04-27 00:54 | -8.54116 | 14.14538 | 13700 ft | 356 kts | 256° |
| 2026-04-27 00:54 | -8.54706 | 14.12112 | 13257 ft | 354 kts | 256° |
| 2026-04-27 00:55 | -8.55299 | 14.09670 | 12811 ft | 352 kts | 256° |
| 2026-04-27 00:55 | -8.55878 | 14.07289 | 12371 ft | 350 kts | 256° |
| 2026-04-27 00:55 | -8.56455 | 14.04913 | 11931 ft | 348 kts | 256° |
| 2026-04-27 00:55 | -8.57033 | 14.02533 | 11487 ft | 345 kts | 256° |
| 2026-04-27 00:56 | -8.57605 | 14.00179 | 11044 ft | 342 kts | 256° |
| 2026-04-27 00:56 | -8.58173 | 13.97838 | 10611 ft | 340 kts | 256° |
| 2026-04-27 00:56 | -8.58736 | 13.95520 | 10176 ft | 338 kts | 256° |
| 2026-04-27 00:56 | -8.59286 | 13.93252 | 9748 ft | 336 kts | 256° |
| 2026-04-27 00:57 | -8.59843 | 13.90955 | 9325 ft | 333 kts | 256° |
| 2026-04-27 00:57 | -8.60387 | 13.88711 | 8878 ft | 329 kts | 256° |
| 2026-04-27 00:57 | -8.60923 | 13.86499 | 8445 ft | 313 kts | 256° |
| 2026-04-27 00:57 | -8.61421 | 13.84443 | 8139 ft | 297 kts | 256° |
| 2026-04-27 00:58 | -8.61908 | 13.82433 | 7947 ft | 289 kts | 256° |
| 2026-04-27 00:58 | -8.62378 | 13.80495 | 7715 ft | 283 kts | 256° |
| 2026-04-27 00:58 | -8.62847 | 13.78556 | 7501 ft | 280 kts | 256° |
| 2026-04-27 00:58 | -8.63312 | 13.76634 | 7293 ft | 282 kts | 256° |
| 2026-04-27 00:59 | -8.63782 | 13.74689 | 7075 ft | 283 kts | 256° |
| 2026-04-27 00:59 | -8.64256 | 13.72732 | 6837 ft | 284 kts | 256° |
| 2026-04-27 00:59 | -8.64724 | 13.70798 | 6563 ft | 282 kts | 256° |
| 2026-04-27 00:59 | -8.65184 | 13.68896 | 6281 ft | 278 kts | 256° |
| 2026-04-27 01:00 | -8.65644 | 13.66997 | 6010 ft | 275 kts | 256° |
| 2026-04-27 01:00 | -8.66096 | 13.65125 | 5768 ft | 273 kts | 256° |
| 2026-04-27 01:00 | -8.66542 | 13.63281 | 5528 ft | 269 kts | 256° |
| 2026-04-27 01:00 | -8.66986 | 13.61441 | 5283 ft | 266 kts | 256° |
| 2026-04-27 01:01 | -8.67422 | 13.59638 | 5041 ft | 263 kts | 256° |
| 2026-04-27 01:01 | -8.67849 | 13.57869 | 4801 ft | 260 kts | 256° |
| 2026-04-27 01:01 | -8.68279 | 13.56090 | 4552 ft | 258 kts | 256° |
| 2026-04-27 01:01 | -8.68698 | 13.54355 | 4312 ft | 255 kts | 256° |
| 2026-04-27 01:02 | -8.69114 | 13.52629 | 4114 ft | 251 kts | 256° |
| 2026-04-27 01:02 | -8.69529 | 13.50911 | 3873 ft | 249 kts | 256° |
| 2026-04-27 01:02 | -8.69941 | 13.49204 | 3632 ft | 247 kts | 255° |
| 2026-04-27 01:02 | -8.70344 | 13.47531 | 3409 ft | 245 kts | 256° |
| 2026-04-27 01:03 | -8.70746 | 13.45865 | 3278 ft | 238 kts | 255° |
| 2026-04-27 01:03 | -8.71133 | 13.44260 | 3147 ft | 232 kts | 255° |
| 2026-04-27 01:03 | -8.71510 | 13.42698 | 3011 ft | 226 kts | 255° |
| 2026-04-27 01:03 | -8.71875 | 13.41178 | 2935 ft | 217 kts | 255° |
| 2026-04-27 01:04 | -8.72223 | 13.39733 | 2925 ft | 205 kts | 255° |
| 2026-04-27 01:04 | -8.72547 | 13.38389 | 2941 ft | 190 kts | 255° |
| 2026-04-27 01:04 | -8.72556 | 13.38353 | 2941 ft | 190 kts | 255° |
| 2026-04-27 01:04 | -8.72911 | 13.37119 | 2938 ft | 190 kts | 240° |
| 2026-04-27 01:05 | -8.73602 | 13.36311 | 2982 ft | 192 kts | 216° |
| 2026-04-27 01:05 | -8.74609 | 13.35385 | 2957 ft | 197 kts | 228° |
| 2026-04-27 01:05 | -8.75443 | 13.34350 | 2927 ft | 184 kts | 230° |
| 2026-04-27 01:05 | -8.76273 | 13.33393 | 2864 ft | 171 kts | 225° |
| 2026-04-27 01:06 | -8.77036 | 13.32616 | 2810 ft | 146 kts | 223° |
| 2026-04-27 01:06 | -8.77747 | 13.31914 | 2539 ft | 138 kts | 222° |
| 2026-04-27 01:06 | -8.78407 | 13.31232 | 2291 ft | 133 kts | 224° |
| 2026-04-27 01:06 | -8.79054 | 13.30567 | 2127 ft | 132 kts | 223° |
| 2026-04-27 01:07 | -8.79693 | 13.29898 | 1996 ft | 134 kts | 224° |
| 2026-04-27 01:07 | -8.80358 | 13.29206 | 1777 ft | 137 kts | 224° |
| 2026-04-27 01:07 | -8.80988 | 13.28511 | 1544 ft | 131 kts | 225° |
| 2026-04-27 01:07 | -8.81622 | 13.27840 | 1345 ft | 131 kts | 224° |
| 2026-04-27 01:08 | -8.82248 | 13.27176 | 1149 ft | 134 kts | 223° |
| 2026-04-27 01:08 | -8.82902 | 13.26508 | 949 ft | 133 kts | 225° |
| 2026-04-27 01:08 | -8.83534 | 13.25831 | 758 ft | 132 kts | 224° |
| 2026-04-27 01:08 | -8.84158 | 13.25148 | 626 ft | 131 kts | 225° |
| 2026-04-27 01:09 | -8.84797 | 13.24481 | 445 ft | 133 kts | 224° |
| 2026-04-27 01:09 | -8.85418 | 13.23805 | 282 ft | 132 kts | 224° |
| 2026-04-27 01:09 | -8.86037 | 13.23142 | 249 ft | 126 kts | 226° |
| 2026-04-27 01:09 | -8.86503 | 13.22647 | 248 ft | 56 kts | 227° |
| 2026-04-27 01:10 | -8.86679 | 13.22456 | 250 ft | 26 kts | 226° |
| 2026-04-27 01:10 | -8.86712 | 13.22393 | 250 ft | 9 kts | 264° |
| 2026-04-27 01:10 | -8.86707 | 13.22303 | 251 ft | 10 kts | 269° |
| 2026-04-27 01:10 | -8.86735 | 13.22238 | 252 ft | 9 kts | 224° |
| 2026-04-27 01:11 | -8.86782 | 13.22204 | 253 ft | 7 kts | 195° |
| 2026-04-27 01:11 | -8.86834 | 13.22219 | 252 ft | 9 kts | 134° |
| 2026-04-27 01:11 | -8.86830 | 13.22292 | 251 ft | 13 kts | 50° |
| 2026-04-27 01:11 | -8.86756 | 13.22371 | 250 ft | 17 kts | 47° |
| 2026-04-27 01:12 | -8.86665 | 13.22468 | 250 ft | 20 kts | 46° |
| 2026-04-27 01:12 | -8.86562 | 13.22580 | 249 ft | 20 kts | 47° |
| 2026-04-27 01:12 | -8.86476 | 13.22656 | 248 ft | 15 kts | 23° |
| 2026-04-27 01:12 | -8.86378 | 13.22680 | 249 ft | 13 kts | 7° |
| 2026-04-27 01:13 | -8.86291 | 13.22681 | 251 ft | 11 kts | 358° |
| 2026-04-27 01:13 | -8.86221 | 13.22697 | 252 ft | 9 kts | 30° |
| 2026-04-27 01:13 | -8.86162 | 13.22756 | 252 ft | 17 kts | 47° |
| 2026-04-27 01:13 | -8.86054 | 13.22874 | 252 ft | 25 kts | 47° |
| 2026-04-27 01:14 | -8.85963 | 13.22971 | 251 ft | 18 kts | 47° |
| 2026-04-27 01:14 | -8.85901 | 13.23032 | 250 ft | 11 kts | 34° |
| 2026-04-27 01:14 | -8.85828 | 13.23055 | 249 ft | 11 kts | 3° |
| 2026-04-27 01:14 | -8.85757 | 13.23057 | 250 ft | 9 kts | 359° |
| 2026-04-27 01:15 | -8.85692 | 13.23058 | 252 ft | 10 kts | 2° |
| 2026-04-27 01:15 | -8.85595 | 13.23061 | 252 ft | 16 kts | 2° |
| 2026-04-27 01:15 | -8.85465 | 13.23066 | 252 ft | 19 kts | 2° |
| 2026-04-27 01:15 | -8.85361 | 13.23069 | 252 ft | 14 kts | 1° |
| 2026-04-27 01:16 | -8.85266 | 13.23072 | 252 ft | 11 kts | 2° |
| 2026-04-27 01:16 | -8.85197 | 13.23074 | 252 ft | 9 kts | 1° |
| 2026-04-27 01:16 | -8.85133 | 13.23080 | 252 ft | 8 kts | 26° |
| 2026-04-27 01:16 | -8.85097 | 13.23126 | 251 ft | 8 kts | 57° |
| 2026-04-27 01:17 | -8.85067 | 13.23185 | 250 ft | 9 kts | 66° |
| 2026-04-27 01:17 | -8.85045 | 13.23234 | 249 ft | 6 kts | 65° |
| 2026-04-27 01:17 | -8.85025 | 13.23271 | 248 ft | 3 kts | 84° |
| 2026-04-27 01:17 | -8.85035 | 13.23297 | 247 ft | 2 kts | 135° |
| 2026-04-27 01:18 | -8.85062 | 13.23313 | 247 ft | 5 kts | 159° |
| 2026-04-27 01:18 | -8.85084 | 13.23322 | 247 ft | 0 kts | 156° |
| 2026-04-27 01:18 | -8.85093 | 13.23326 | 247 ft | 3 kts | 156° |
| 2026-04-27 01:18 | -8.85096 | 13.23327 | 247 ft | 0 kts | 157° |